Time;durP1;ratioP1;P1;durP2;ratioP2;P2;SDS_P1;SDS_P2;PMS_P1;PMS_P2;Temp;Humidity;BMP_temperature;BMP_pressure;BME280_temperature;BME280_humidity;BME280_pressure;Samples;Min_cycle;Max_cycle;Signal;HPM_P1;HPM_P2
2021/10/26 00:01:35;;;;;;;8.53;7.00;;;11.20;99.90;;;;;;5040416;28;20330;-48
2021/10/26 00:04:03;;;;;;;12.00;8.23;;;11.20;99.90;;;;;;5042282;28;20227;-47
2021/10/26 00:06:30;;;;;;;10.83;9.10;;;11.20;99.90;;;;;;5031537;28;20199;-45
2021/10/26 00:08:58;;;;;;;12.77;9.83;;;11.20;99.90;;;;;;5037992;28;20234;-48
2021/10/26 00:11:24;;;;;;;15.17;11.07;;;11.10;99.90;;;;;;5024789;28;20210;-43
2021/10/26 00:13:51;;;;;;;14.30;12.60;;;11.10;99.90;;;;;;5046326;28;20236;-44
2021/10/26 00:16:18;;;;;;;17.97;12.33;;;11.10;99.90;;;;;;5042904;28;20223;-44
2021/10/26 00:18:45;;;;;;;14.67;12.20;;;11.00;99.90;;;;;;5046469;28;20204;-44
2021/10/26 00:21:13;;;;;;;14.40;11.93;;;11.00;99.90;;;;;;5038737;28;20203;-43
2021/10/26 00:23:39;;;;;;;15.47;12.63;;;11.00;99.90;;;;;;5045256;28;20242;-45
2021/10/26 00:26:06;;;;;;;14.70;12.27;;;11.00;99.90;;;;;;5030676;28;20211;-46
2021/10/26 00:28:34;;;;;;;18.60;14.43;;;11.00;99.90;;;;;;5043656;28;20270;-43
2021/10/26 00:31:00;;;;;;;15.90;13.53;;;10.90;99.90;;;;;;5044904;28;20688;-45
2021/10/26 00:33:27;;;;;;;15.63;12.53;;;10.90;99.90;;;;;;5040869;28;20474;-43
2021/10/26 00:35:54;;;;;;;19.40;13.33;;;10.90;99.90;;;;;;5044917;28;20199;-45
2021/10/26 00:38:23;;;;;;;15.77;13.40;;;10.90;99.90;;;;;;5037055;28;20203;-45
2021/10/26 00:40:50;;;;;;;16.90;12.93;;;10.80;99.90;;;;;;5028605;28;20703;-45
2021/10/26 00:43:17;;;;;;;18.73;13.50;;;10.80;99.90;;;;;;5040538;28;20223;-45
2021/10/26 00:45:44;;;;;;;20.23;13.80;;;10.80;99.90;;;;;;5045955;28;20187;-47
2021/10/26 00:48:13;;;;;;;16.07;13.73;;;10.80;99.90;;;;;;5041892;28;20235;-44
2021/10/26 00:50:41;;;;;;;18.37;14.40;;;10.80;99.90;;;;;;5043864;28;20208;-44
2021/10/26 00:53:07;;;;;;;19.23;14.93;;;10.80;99.90;;;;;;5038908;28;20234;-44
2021/10/26 00:55:35;;;;;;;17.20;14.47;;;10.80;99.90;;;;;;5026768;28;21740;-43
2021/10/26 00:58:02;;;;;;;18.37;14.50;;;10.80;99.90;;;;;;5045240;28;20203;-46
2021/10/26 01:00:29;;;;;;;22.03;15.67;;;10.80;99.90;;;;;;5041104;28;20458;-45
2021/10/26 01:02:56;;;;;;;19.80;15.03;;;10.70;99.90;;;;;;5045703;28;20206;-46
2021/10/26 01:05:26;;;;;;;20.63;15.23;;;10.70;99.90;;;;;;5032627;28;20235;-47
2021/10/26 01:07:53;;;;;;;20.80;16.07;;;10.70;99.90;;;;;;5035110;28;20196;-45
2021/10/26 01:10:21;;;;;;;20.57;16.63;;;10.70;99.90;;;;;;5044837;28;20203;-46
2021/10/26 01:12:50;;;;;;;19.90;15.83;;;10.70;99.90;;;;;;5024828;28;20268;-45
2021/10/26 01:15:17;;;;;;;23.90;15.90;;;10.70;99.90;;;;;;5043339;28;20215;-48
2021/10/26 01:17:44;;;;;;;21.20;17.00;;;10.70;99.90;;;;;;5040535;28;20211;-46
2021/10/26 01:20:12;;;;;;;22.13;16.03;;;10.70;99.90;;;;;;5043873;28;20207;-49
2021/10/26 01:22:42;;;;;;;24.57;17.23;;;10.70;99.90;;;;;;5042669;28;20218;-44
2021/10/26 01:25:13;;;;;;;22.57;17.23;;;10.70;99.90;;;;;;5039796;28;20211;-46
2021/10/26 01:27:52;;;;;;;22.87;17.67;;;10.70;99.90;;;;;;5025498;28;20207;-44
2021/10/26 01:30:25;;;;;;;25.67;18.07;;;10.70;99.90;;;;;;5043703;28;20231;-45
2021/10/26 01:32:53;;;;;;;27.77;18.27;;;10.70;99.90;;;;;;5039725;28;20199;-47
2021/10/26 01:35:40;;;;;;;24.50;19.03;;;10.70;99.90;;;;;;5022323;28;20231;-44
2021/10/26 01:38:08;;;;;;;26.63;18.93;;;10.70;99.90;;;;;;5042682;28;20637;-47
2021/10/26 01:40:36;;;;;;;23.73;18.43;;;10.70;99.90;;;;;;5037092;28;20204;-44
2021/10/26 01:43:04;;;;;;;24.10;19.57;;;10.70;99.90;;;;;;5022206;28;20903;-47
2021/10/26 01:45:30;;;;;;;25.77;20.00;;;10.80;99.90;;;;;;5042922;28;20245;-47
2021/10/26 01:48:07;;;;;;;28.47;20.40;;;10.80;99.90;;;;;;5042408;28;21027;-47
2021/10/26 01:50:34;;;;;;;22.97;18.40;;;10.80;99.90;;;;;;5043715;28;20227;-47
2021/10/26 01:53:02;;;;;;;26.80;19.73;;;10.80;99.90;;;;;;5038983;28;20207;-47
2021/10/26 01:55:30;;;;;;;26.23;19.90;;;10.80;99.90;;;;;;5042504;28;20692;-48
2021/10/26 01:57:57;;;;;;;27.60;20.20;;;10.80;99.90;;;;;;5020853;28;20226;-46
2021/10/26 02:00:50;;;;;;;25.73;18.47;;;10.80;99.90;;;;;;5039968;28;20203;-47
2021/10/26 02:03:17;;;;;;;26.60;20.00;;;10.80;99.90;;;;;;5042879;28;20719;-47
2021/10/26 02:05:44;;;;;;;25.90;18.87;;;10.80;99.90;;;;;;5032478;28;20554;-46
2021/10/26 02:08:12;;;;;;;23.80;18.93;;;10.80;99.90;;;;;;5042211;28;20583;-46
2021/10/26 02:10:38;;;;;;;30.97;19.83;;;10.80;99.90;;;;;;5039148;28;20238;-49
2021/10/26 02:13:05;;;;;;;26.80;19.57;;;10.80;99.90;;;;;;5025270;28;20227;-46
2021/10/26 02:15:32;;;;;;;24.87;18.03;;;10.80;99.90;;;;;;5041883;28;20223;-44
2021/10/26 02:17:59;;;;;;;24.57;19.00;;;10.80;99.90;;;;;;5038414;28;20199;-44
2021/10/26 02:20:27;;;;;;;24.13;18.80;;;10.80;99.90;;;;;;5042864;28;20333;-43
2021/10/26 02:22:54;;;;;;;26.07;19.63;;;10.80;99.90;;;;;;5038951;28;20828;-44
2021/10/26 02:25:23;;;;;;;26.60;19.23;;;10.80;99.90;;;;;;5042947;28;20225;-44
2021/10/26 02:27:50;;;;;;;27.13;18.97;;;10.80;99.90;;;;;;5019458;28;20199;-45
2021/10/26 02:30:17;;;;;;;24.43;19.20;;;10.80;99.90;;;;;;5042282;28;20293;-46
2021/10/26 02:32:44;;;;;;;24.93;19.57;;;10.80;99.90;;;;;;5038826;28;20768;-44
2021/10/26 02:35:12;;;;;;;26.47;20.53;;;10.80;99.90;;;;;;5041564;28;20227;-45
2021/10/26 02:37:38;;;;;;;27.00;19.37;;;10.90;99.90;;;;;;5039583;28;20207;-47
2021/10/26 02:40:06;;;;;;;31.83;19.97;;;10.90;99.90;;;;;;5040977;28;20191;-44
2021/10/26 02:42:34;;;;;;;27.87;19.43;;;10.80;99.90;;;;;;5040951;28;20203;-44
2021/10/26 02:45:02;;;;;;;22.20;18.17;;;10.80;99.90;;;;;;5020058;28;20302;-47
2021/10/26 02:47:29;;;;;;;24.90;19.43;;;10.80;99.90;;;;;;5041793;28;20794;-45
2021/10/26 02:49:56;;;;;;;24.77;18.63;;;10.80;99.90;;;;;;5040377;28;20198;-43
2021/10/26 02:52:22;;;;;;;24.80;19.03;;;10.80;99.90;;;;;;5042273;28;20214;-45
2021/10/26 02:54:49;;;;;;;27.37;19.10;;;10.80;99.90;;;;;;5039366;28;20321;-44
2021/10/26 02:57:16;;;;;;;25.43;18.00;;;10.80;99.90;;;;;;5043524;28;20199;-45
2021/10/26 02:59:44;;;;;;;23.93;18.80;;;10.80;99.90;;;;;;5022598;28;20214;-47
2021/10/26 03:02:11;;;;;;;26.03;19.93;;;10.70;99.90;;;;;;5035893;28;20207;-45
2021/10/26 03:04:38;;;;;;;24.67;19.40;;;10.80;99.90;;;;;;5039829;28;20245;-45
2021/10/26 03:07:05;;;;;;;28.53;19.40;;;10.70;99.90;;;;;;5026257;28;20208;-44
2021/10/26 03:09:32;;;;;;;26.33;18.93;;;10.70;99.90;;;;;;5038394;28;20199;-45
2021/10/26 03:11:58;;;;;;;34.67;19.50;;;10.70;99.90;;;;;;5042484;28;20209;-46
2021/10/26 03:14:25;;;;;;;29.20;19.83;;;10.70;99.90;;;;;;5034362;28;20235;-44
2021/10/26 03:16:53;;;;;;;23.43;19.17;;;10.70;99.90;;;;;;5025771;28;20203;-47
2021/10/26 03:19:20;;;;;;;27.87;20.10;;;10.70;99.90;;;;;;5040140;28;20203;-46
2021/10/26 03:21:46;;;;;;;26.83;19.17;;;10.70;99.90;;;;;;5039262;28;20288;-47
2021/10/26 03:24:13;;;;;;;27.57;19.97;;;10.60;99.90;;;;;;5041809;28;20715;-44
2021/10/26 03:26:40;;;;;;;29.10;20.33;;;10.60;99.90;;;;;;5039491;28;20191;-48
2021/10/26 03:29:08;;;;;;;26.70;19.83;;;10.60;99.90;;;;;;5041877;28;20241;-47
2021/10/26 03:31:36;;;;;;;27.43;20.37;;;10.60;99.90;;;;;;5004600;28;20230;-49
2021/10/26 03:34:29;;;;;;;37.17;21.97;;;10.70;99.90;;;;;;5034174;28;20361;-50
2021/10/26 03:36:56;;;;;;;36.10;22.87;;;10.60;99.90;;;;;;5036707;28;20199;-50
2021/10/26 03:39:23;;;;;;;33.60;21.03;;;10.60;99.90;;;;;;5040716;28;20286;-45
2021/10/26 03:41:50;;;;;;;28.60;20.57;;;10.60;99.90;;;;;;5026647;28;20295;-47
2021/10/26 03:44:17;;;;;;;28.73;20.30;;;10.60;99.90;;;;;;5034311;28;20726;-46
2021/10/26 03:46:44;;;;;;;28.07;19.93;;;10.60;99.90;;;;;;5033847;28;20210;-49
2021/10/26 03:49:11;;;;;;;29.53;20.80;;;10.50;99.90;;;;;;5027701;28;20229;-47
2021/10/26 03:51:39;;;;;;;31.80;21.13;;;10.50;99.90;;;;;;5041285;28;20897;-49
2021/10/26 03:54:06;;;;;;;25.93;19.53;;;10.50;99.90;;;;;;5045641;28;20226;-45
2021/10/26 03:56:33;;;;;;;33.23;20.57;;;10.40;99.90;;;;;;5041530;28;20195;-48
2021/10/26 03:59:05;;;;;;;30.00;20.20;;;10.40;99.90;;;;;;5039457;28;20204;-45
2021/10/26 04:01:33;;;;;;;26.20;19.97;;;10.40;99.90;;;;;;5033275;28;20219;-45
2021/10/26 04:04:00;;;;;;;32.20;20.67;;;10.30;99.90;;;;;;5025409;28;20281;-47
2021/10/26 04:06:30;;;;;;;40.53;22.07;;;10.30;99.90;;;;;;5033771;28;20634;-47
2021/10/26 04:09:00;;;;;;;37.27;23.00;;;10.30;99.90;;;;;;5037903;28;20199;-48
2021/10/26 04:11:28;;;;;;;31.27;21.70;;;10.30;99.90;;;;;;5039802;28;20211;-47
2021/10/26 04:13:58;;;;;;;32.03;21.57;;;10.30;99.90;;;;;;5045556;28;20227;-47
2021/10/26 04:16:25;;;;;;;32.87;21.70;;;10.30;99.90;;;;;;5036301;28;20242;-48
2021/10/26 04:18:52;;;;;;;33.63;22.03;;;10.30;99.90;;;;;;5020468;28;20245;-51
2021/10/26 04:21:19;;;;;;;33.03;21.90;;;10.30;99.90;;;;;;5044407;28;20649;-45
2021/10/26 04:23:48;;;;;;;51.30;25.63;;;10.30;99.90;;;;;;5042862;28;20936;-49
2021/10/26 04:26:16;;;;;;;32.00;22.20;;;10.30;99.90;;;;;;5036197;28;20207;-48
2021/10/26 04:28:43;;;;;;;33.40;23.10;;;10.40;99.90;;;;;;5041851;28;20210;-49
2021/10/26 04:31:10;;;;;;;36.13;23.07;;;10.40;99.90;;;;;;5044833;28;20253;-45
2021/10/26 04:33:36;;;;;;;32.13;22.43;;;10.40;99.90;;;;;;5021134;28;20348;-50
2021/10/26 04:36:04;;;;;;;32.97;22.27;;;10.40;99.90;;;;;;5044652;28;20215;-45
2021/10/26 04:38:30;;;;;;;35.13;22.73;;;10.40;99.90;;;;;;5037014;28;20211;-47
2021/10/26 04:40:58;;;;;;;36.60;23.67;;;10.40;99.90;;;;;;5044463;28;20227;-50
2021/10/26 04:43:30;;;;;;;39.07;22.87;;;10.40;99.90;;;;;;5035423;28;20220;-46
2021/10/26 04:45:57;;;;;;;36.07;22.47;;;10.40;99.90;;;;;;5044483;28;20204;-45
2021/10/26 04:48:24;;;;;;;29.07;22.23;;;10.40;99.90;;;;;;5032779;28;20208;-47
2021/10/26 04:50:52;;;;;;;34.93;22.83;;;10.40;99.90;;;;;;5028715;28;20214;-44
2021/10/26 04:53:19;;;;;;;34.80;23.13;;;10.40;99.90;;;;;;5041853;28;20306;-46
2021/10/26 04:55:54;;;;;;;39.40;24.07;;;10.40;99.90;;;;;;5035402;28;20758;-48
2021/10/26 04:58:22;;;;;;;35.53;23.63;;;10.50;99.90;;;;;;5041654;28;20212;-44
2021/10/26 05:00:52;;;;;;;36.23;23.00;;;10.50;99.90;;;;;;5042922;28;20946;-50
2021/10/26 05:03:20;;;;;;;37.37;23.33;;;10.50;99.90;;;;;;5026895;28;20603;-47
2021/10/26 05:05:47;;;;;;;37.53;23.23;;;10.50;99.90;;;;;;5042311;28;20199;-51
2021/10/26 05:08:13;;;;;;;35.47;22.00;;;10.50;99.90;;;;;;5033944;28;20214;-47
2021/10/26 05:10:40;;;;;;;35.03;22.43;;;10.50;99.90;;;;;;5035549;28;20208;-49
2021/10/26 05:13:09;;;;;;;42.70;22.93;;;10.50;99.90;;;;;;5031066;28;20231;-47
2021/10/26 05:15:57;;;;;;;39.33;24.33;;;10.60;99.90;;;;;;5042884;28;20777;-47
2021/10/26 05:18:53;;;;;;;37.50;23.77;;;10.60;99.90;;;;;;5030515;28;20211;-49
2021/10/26 05:21:38;;;;;;;38.03;22.53;;;10.60;99.90;;;;;;5028184;28;20517;-49
2021/10/26 05:24:34;;;;;;;39.33;24.93;;;10.60;99.90;;;;;;5015465;28;20235;-47
2021/10/26 05:27:12;;;;;;;37.87;24.40;;;10.60;99.90;;;;;;5039648;28;20881;-45
2021/10/26 05:29:40;;;;;;;38.97;24.43;;;10.60;99.90;;;;;;5042568;28;20203;-48
2021/10/26 05:32:09;;;;;;;41.87;24.20;;;10.60;99.90;;;;;;5036090;28;20605;-46
2021/10/26 05:34:37;;;;;;;37.27;23.23;;;10.60;99.90;;;;;;5033492;28;20216;-50
2021/10/26 05:37:05;;;;;;;33.60;22.73;;;10.60;99.90;;;;;;5026749;28;20223;-44
2021/10/26 05:39:33;;;;;;;40.40;23.23;;;10.60;99.90;;;;;;5033430;28;20211;-47
2021/10/26 05:42:01;;;;;;;40.07;22.67;;;10.60;99.90;;;;;;5031363;28;20305;-49
2021/10/26 05:44:28;;;;;;;34.70;23.13;;;10.60;99.90;;;;;;5039039;28;20653;-50
2021/10/26 05:46:54;;;;;;;49.13;26.57;;;10.60;99.90;;;;;;5035265;28;20203;-45
2021/10/26 05:49:22;;;;;;;34.77;23.30;;;10.60;99.90;;;;;;5032531;28;20471;-48
2021/10/26 05:51:50;;;;;;;42.07;24.63;;;10.60;99.90;;;;;;5030786;28;20199;-47
2021/10/26 05:54:17;;;;;;;45.97;24.53;;;10.70;99.90;;;;;;5018884;28;20612;-45
2021/10/26 05:56:43;;;;;;;46.87;26.77;;;10.70;99.90;;;;;;5037587;28;20211;-45
2021/10/26 05:59:10;;;;;;;44.53;24.30;;;10.70;99.90;;;;;;5035355;28;20218;-45
2021/10/26 06:01:37;;;;;;;43.20;25.67;;;10.60;99.90;;;;;;5042106;28;20199;-49
2021/10/26 06:04:04;;;;;;;36.50;23.47;;;10.60;99.90;;;;;;5038078;28;20574;-49
2021/10/26 06:06:36;;;;;;;43.83;25.93;;;10.70;99.90;;;;;;5029923;28;20191;-46
2021/10/26 06:09:03;;;;;;;38.13;24.40;;;10.70;99.90;;;;;;5023870;28;20362;-49
2021/10/26 06:11:31;;;;;;;37.77;24.83;;;10.70;99.90;;;;;;5038751;28;20203;-44
2021/10/26 06:14:03;;;;;;;37.93;25.17;;;10.60;99.90;;;;;;5038434;28;20631;-46
2021/10/26 06:16:30;;;;;;;41.60;25.87;;;10.60;99.90;;;;;;5038133;28;20239;-47
2021/10/26 06:18:58;;;;;;;35.80;24.63;;;10.60;99.90;;;;;;5032687;28;20275;-46
2021/10/26 06:21:25;;;;;;;47.00;27.93;;;10.60;99.90;;;;;;5026864;28;21383;-44
2021/10/26 06:23:53;;;;;;;39.27;25.20;;;10.60;99.90;;;;;;5038593;28;20219;-49
2021/10/26 06:26:24;;;;;;;38.30;25.93;;;10.60;99.90;;;;;;5032763;28;20825;-46
2021/10/26 06:28:55;;;;;;;37.27;25.53;;;10.60;99.90;;;;;;5026939;28;20273;-46
2021/10/26 06:31:22;;;;;;;45.83;27.13;;;10.70;99.90;;;;;;5039235;28;20806;-45
2021/10/26 06:33:51;;;;;;;45.23;26.57;;;10.70;99.90;;;;;;5030939;28;20214;-46
2021/10/26 06:36:21;;;;;;;47.83;27.37;;;10.70;99.90;;;;;;5016709;28;21742;-46
2021/10/26 06:38:49;;;;;;;49.43;27.83;;;10.70;99.90;;;;;;5041568;28;20234;-47
2021/10/26 06:41:16;;;;;;;39.83;26.53;;;10.70;99.90;;;;;;5011849;28;22273;-48
2021/10/26 06:43:58;;;;;;;43.63;26.53;;;10.80;99.90;;;;;;5032234;28;20222;-45
2021/10/26 06:46:44;;;;;;;40.50;26.00;;;10.80;99.90;;;;;;5015311;28;20222;-45
2021/10/26 06:49:29;;;;;;;45.30;27.87;;;10.80;99.90;;;;;;5025870;28;21204;-47
2021/10/26 06:52:15;;;;;;;42.63;26.83;;;10.80;99.90;;;;;;5023530;28;20222;-45
2021/10/26 06:55:01;;;;;;;40.60;26.73;;;10.90;99.90;;;;;;5034154;28;20245;-49
2021/10/26 06:57:49;;;;;;;37.60;26.03;;;10.90;99.90;;;;;;5036904;28;20278;-46
2021/10/26 07:00:45;;;;;;;40.73;26.87;;;10.90;99.90;;;;;;5038814;28;20215;-45
2021/10/26 07:03:30;;;;;;;38.23;25.57;;;10.90;99.90;;;;;;5034617;28;20254;-44
2021/10/26 07:06:08;;;;;;;39.43;26.17;;;10.90;99.90;;;;;;5027251;28;20214;-45
2021/10/26 07:08:38;;;;;;;40.53;26.17;;;10.90;99.90;;;;;;5028777;28;20942;-43
2021/10/26 07:11:24;;;;;;;47.70;27.73;;;11.00;99.90;;;;;;5016117;28;20264;-45
2021/10/26 07:13:52;;;;;;;43.83;26.50;;;11.00;99.90;;;;;;5023723;28;21013;-48
2021/10/26 07:16:19;;;;;;;40.57;26.07;;;11.00;99.90;;;;;;5035430;28;20310;-44
2021/10/26 07:18:48;;;;;;;39.63;25.20;;;11.00;99.90;;;;;;5026596;28;20253;-43
2021/10/26 07:21:15;;;;;;;37.43;24.60;;;11.10;99.90;;;;;;5037550;28;20223;-43
2021/10/26 07:24:14;;;;;;;38.30;23.67;;;11.10;99.90;;;;;;5032415;28;20231;-44
2021/10/26 07:26:46;;;;;;;40.73;26.40;;;11.00;99.90;;;;;;5018359;28;20209;-44
2021/10/26 07:29:14;;;;;;;43.70;26.50;;;11.10;99.90;;;;;;5048849;28;20215;-44
2021/10/26 07:31:42;;;;;;;45.50;25.97;;;11.10;99.90;;;;;;5036622;28;20565;-50
2021/10/26 07:34:12;;;;;;;40.80;26.57;;;11.10;99.90;;;;;;5039086;28;20231;-44
2021/10/26 07:36:42;;;;;;;40.37;24.97;;;11.10;99.90;;;;;;5031567;28;20211;-43
2021/10/26 07:39:21;;;;;;;37.60;23.77;;;11.20;99.90;;;;;;5034804;28;20311;-46
2021/10/26 07:41:49;;;;;;;35.13;23.13;;;11.20;99.90;;;;;;5015856;28;20218;-47
2021/10/26 07:44:35;;;;;;;41.97;25.67;;;11.20;99.90;;;;;;5036284;28;20492;-48
2021/10/26 07:47:04;;;;;;;44.00;25.57;;;11.20;99.90;;;;;;5022317;28;20202;-46
2021/10/26 07:49:31;;;;;;;37.90;25.90;;;11.20;99.90;;;;;;5038402;28;20294;-47
2021/10/26 07:51:58;;;;;;;42.43;25.87;;;11.30;99.90;;;;;;5037568;28;20836;-44
2021/10/26 07:54:26;;;;;;;32.90;21.73;;;11.30;99.90;;;;;;5050126;28;20230;-44
2021/10/26 07:56:53;;;;;;;36.43;24.37;;;11.30;99.90;;;;;;5007956;28;20223;-47
2021/10/26 07:59:20;;;;;;;35.63;25.03;;;11.30;99.90;;;;;;5042498;28;20218;-47
2021/10/26 08:01:51;;;;;;;38.27;24.87;;;11.30;99.90;;;;;;5022056;28;20285;-46
2021/10/26 08:04:37;;;;;;;39.60;24.07;;;11.40;99.90;;;;;;5029778;28;20234;-47
2021/10/26 08:07:18;;;;;;;35.07;23.63;;;11.40;99.90;;;;;;5030238;28;20672;-45
2021/10/26 08:09:49;;;;;;;38.03;24.27;;;11.40;99.90;;;;;;5024243;28;20260;-45
2021/10/26 08:12:16;;;;;;;34.90;22.87;;;11.40;99.90;;;;;;5039353;28;20205;-44
2021/10/26 08:14:43;;;;;;;36.53;23.77;;;11.40;99.90;;;;;;5016299;28;20743;-44
2021/10/26 08:17:11;;;;;;;33.90;22.07;;;11.40;99.90;;;;;;5029548;28;20723;-47
2021/10/26 08:19:38;;;;;;;30.50;22.33;;;11.40;99.90;;;;;;5033931;28;20192;-45
2021/10/26 08:22:11;;;;;;;33.83;21.93;;;11.50;99.90;;;;;;5037016;28;20187;-44
2021/10/26 08:24:38;;;;;;;31.57;20.53;;;11.50;99.90;;;;;;5022419;28;20224;-47
2021/10/26 08:27:08;;;;;;;33.83;23.03;;;11.60;99.90;;;;;;5028020;28;20275;-47
2021/10/26 08:29:42;;;;;;;33.73;22.60;;;11.60;99.90;;;;;;5020383;28;20624;-48
2021/10/26 08:37:38;;;;;;;28.97;19.83;;;11.70;99.90;;;;;;5031912;28;20580;-45
2021/10/26 08:40:08;;;;;;;29.27;18.80;;;11.70;99.90;;;;;;5028376;28;20287;-49
2021/10/26 08:42:36;;;;;;;27.47;18.87;;;11.80;99.90;;;;;;5035278;28;20219;-44
2021/10/26 08:45:07;;;;;;;34.90;20.13;;;11.80;99.90;;;;;;5028220;28;20865;-44
2021/10/26 08:47:37;;;;;;;27.30;19.67;;;11.90;99.90;;;;;;5038510;28;20195;-44
2021/10/26 08:50:24;;;;;;;30.37;20.37;;;11.90;99.90;;;;;;5026106;28;20214;-46
2021/10/26 08:52:51;;;;;;;26.10;18.37;;;12.00;99.90;;;;;;5039079;28;20220;-46
2021/10/26 08:55:38;;;;;;;25.83;17.47;;;12.10;99.90;;;;;;5037862;28;20288;-44
2021/10/26 08:58:32;;;;;;;23.83;16.87;;;12.10;99.90;;;;;;5031996;28;20196;-48
2021/10/26 09:01:01;;;;;;;22.53;16.40;;;12.10;99.90;;;;;;5011959;28;20939;-45
2021/10/26 09:03:32;;;;;;;28.90;17.30;;;12.10;99.90;;;;;;5037597;28;20219;-45
2021/10/26 09:05:59;;;;;;;21.77;15.80;;;12.10;99.90;;;;;;5032962;28;20188;-46
2021/10/26 09:08:28;;;;;;;23.10;15.70;;;12.10;99.90;;;;;;5055537;28;20195;-48
2021/10/26 09:11:04;;;;;;;27.37;16.87;;;12.10;99.90;;;;;;5034724;28;20200;-44
2021/10/26 09:16:53;;;;;;;22.23;15.93;;;12.20;99.90;;;;;;5026032;28;20233;-44
2021/10/26 09:19:42;;;;;;;21.97;14.30;;;12.20;99.90;;;;;;5038014;28;20317;-43
2021/10/26 09:22:29;;;;;;;25.03;15.03;;;12.30;99.90;;;;;;5035411;28;20291;-43
2021/10/26 09:24:58;;;;;;;22.07;13.47;;;12.30;99.90;;;;;;5029681;28;20692;-43
2021/10/26 09:27:25;;;;;;;18.80;14.87;;;12.30;99.90;;;;;;5027034;28;20208;-44
2021/10/26 09:29:54;;;;;;;19.90;13.17;;;12.30;99.90;;;;;;5017888;28;20758;-44
2021/10/26 09:32:22;;;;;;;21.93;13.67;;;12.30;99.90;;;;;;5040051;28;20221;-46
2021/10/26 09:34:55;;;;;;;19.93;13.87;;;12.30;99.90;;;;;;5039582;28;20584;-45
2021/10/26 09:37:26;;;;;;;19.80;13.40;;;12.30;99.90;;;;;;5036918;28;20651;-44
2021/10/26 09:39:55;;;;;;;18.93;13.07;;;12.30;99.90;;;;;;5038042;28;20199;-45
2021/10/26 09:42:22;;;;;;;24.23;13.80;;;12.30;99.90;;;;;;5027730;28;20204;-45
2021/10/26 09:44:50;;;;;;;17.97;12.23;;;12.40;99.90;;;;;;5032376;28;20251;-45
2021/10/26 09:47:21;;;;;;;16.87;11.73;;;12.40;99.90;;;;;;5027318;28;20215;-44
2021/10/26 09:49:55;;;;;;;17.70;11.07;;;12.40;99.90;;;;;;5040013;28;20278;-45
2021/10/26 09:52:27;;;;;;;17.53;11.07;;;12.40;99.90;;;;;;5035755;28;20294;-44
2021/10/26 09:55:06;;;;;;;17.20;10.87;;;12.40;99.90;;;;;;5033007;28;20591;-45
2021/10/26 09:57:34;;;;;;;17.20;11.47;;;12.40;99.90;;;;;;5036624;28;20215;-47
2021/10/26 10:00:02;;;;;;;16.80;11.70;;;12.40;99.90;;;;;;5033770;28;20250;-44
2021/10/26 10:02:39;;;;;;;16.23;11.90;;;12.40;99.90;;;;;;5025471;28;20203;-44
2021/10/26 10:05:19;;;;;;;17.23;12.00;;;12.40;99.90;;;;;;5033061;28;20859;-45
2021/10/26 10:07:46;;;;;;;18.07;11.40;;;12.50;99.90;;;;;;5021054;28;20196;-44
2021/10/26 10:10:12;;;;;;;14.33;10.73;;;12.50;99.90;;;;;;5037115;28;20217;-44
2021/10/26 10:12:44;;;;;;;14.43;10.07;;;12.50;99.90;;;;;;5036417;28;20207;-43
2021/10/26 10:15:13;;;;;;;14.80;10.07;;;12.50;99.90;;;;;;5035812;28;20207;-45
2021/10/26 10:17:40;;;;;;;16.43;10.43;;;12.60;99.90;;;;;;5028663;28;20207;-45
2021/10/26 10:20:12;;;;;;;14.63;10.27;;;12.70;99.90;;;;;;5039276;28;20203;-44
2021/10/26 10:22:41;;;;;;;17.43;10.60;;;12.70;99.90;;;;;;5038130;28;20695;-43
2021/10/26 10:25:10;;;;;;;17.03;10.50;;;12.80;99.90;;;;;;5037484;28;20199;-46
2021/10/26 10:27:41;;;;;;;16.83;11.17;;;12.90;99.90;;;;;;5034403;28;20202;-47
2021/10/26 10:30:10;;;;;;;15.03;10.30;;;12.90;99.90;;;;;;5029196;28;20310;-46
2021/10/26 10:32:39;;;;;;;17.90;12.07;;;12.90;99.90;;;;;;5012180;28;21774;-43
2021/10/26 10:35:14;;;;;;;21.20;11.53;;;12.80;99.90;;;;;;5027256;28;20219;-44
2021/10/26 10:37:42;;;;;;;16.40;11.07;;;12.80;99.90;;;;;;5030563;28;20222;-45
2021/10/26 10:40:11;;;;;;;17.77;12.13;;;12.80;99.90;;;;;;5032814;28;20211;-44
2021/10/26 10:42:44;;;;;;;18.97;12.73;;;12.80;99.90;;;;;;5030722;28;20245;-44
2021/10/26 10:45:23;;;;;;;17.97;12.50;;;12.80;99.90;;;;;;5032627;28;20203;-57
2021/10/26 10:47:50;;;;;;;17.70;11.47;;;12.80;99.90;;;;;;5018354;28;20202;-57
2021/10/26 10:50:26;;;;;;;17.30;11.60;;;12.80;99.90;;;;;;5038893;28;20266;-44
2021/10/26 10:53:19;;;;;;;13.03;9.60;;;12.80;99.90;;;;;;5028633;28;20283;-48
2021/10/26 10:55:48;;;;;;;14.77;10.40;;;12.70;99.90;;;;;;5019933;28;20294;-44
2021/10/26 10:58:23;;;;;;;17.63;10.27;;;12.70;99.90;;;;;;5037794;28;20570;-44
2021/10/26 11:00:53;;;;;;;17.53;12.00;;;12.70;99.90;;;;;;5027904;28;20201;-44
2021/10/26 11:03:30;;;;;;;11.93;10.40;;;12.70;99.90;;;;;;5015759;28;20337;-46
2021/10/26 11:05:58;;;;;;;10.73;8.73;;;12.70;99.90;;;;;;5033993;28;20193;-44
2021/10/26 11:08:45;;;;;;;11.83;9.63;;;12.70;99.90;;;;;;5034643;28;20208;-43
2021/10/26 11:11:11;;;;;;;12.57;8.63;;;12.70;99.90;;;;;;5039991;28;20297;-47
2021/10/26 11:13:38;;;;;;;13.27;8.77;;;12.70;99.90;;;;;;5039865;28;20219;-44
2021/10/26 11:16:08;;;;;;;12.93;9.50;;;12.70;99.90;;;;;;5037089;28;20275;-44
2021/10/26 11:18:37;;;;;;;12.50;9.00;;;12.80;99.90;;;;;;5034672;28;20230;-43
2021/10/26 11:21:06;;;;;;;12.07;8.73;;;12.80;99.90;;;;;;5028884;28;20195;-45
2021/10/26 11:23:44;;;;;;;10.87;8.27;;;12.80;99.90;;;;;;5039305;28;20218;-43
2021/10/26 11:26:17;;;;;;;10.20;7.67;;;12.90;99.90;;;;;;5041104;28;20209;-44
2021/10/26 11:29:03;;;;;;;11.23;8.00;;;13.00;99.90;;;;;;5024115;28;20761;-44
2021/10/26 11:31:32;;;;;;;8.63;7.00;;;13.10;99.90;;;;;;5030538;28;20207;-47
2021/10/26 11:34:06;;;;;;;14.33;7.30;;;13.20;99.90;;;;;;5022302;28;20231;-45
2021/10/26 11:36:37;;;;;;;11.87;7.80;;;13.30;99.90;;;;;;5037083;28;20199;-42
2021/10/26 11:39:11;;;;;;;12.27;8.27;;;13.40;99.90;;;;;;5034735;28;20873;-45
2021/10/26 11:41:39;;;;;;;8.73;6.77;;;13.50;99.90;;;;;;5027645;28;20207;-42
2021/10/26 11:44:07;;;;;;;9.63;6.80;;;13.50;99.90;;;;;;5033925;28;20222;-43
2021/10/26 11:46:36;;;;;;;10.30;7.43;;;13.50;99.90;;;;;;5022217;28;20550;-42
2021/10/26 11:49:06;;;;;;;10.10;7.70;;;13.40;99.90;;;;;;5015872;28;20826;-43
2021/10/26 11:51:37;;;;;;;8.70;6.80;;;13.40;99.90;;;;;;5040159;28;20269;-42
2021/10/26 11:54:08;;;;;;;10.40;7.80;;;13.40;99.90;;;;;;5029593;28;20266;-43
2021/10/26 11:56:39;;;;;;;13.03;7.23;;;13.50;99.90;;;;;;5030762;28;20218;-43
2021/10/26 11:59:10;;;;;;;8.30;7.50;;;13.50;99.90;;;;;;5031653;28;20191;-43
2021/10/26 12:01:51;;;;;;;12.13;8.00;;;13.50;99.90;;;;;;5018599;28;20226;-43
2021/10/26 12:04:28;;;;;;;8.90;6.63;;;13.60;99.90;;;;;;5019267;28;20569;-48
2021/10/26 12:06:58;;;;;;;11.80;7.70;;;13.60;99.90;;;;;;5036751;28;20371;-42
2021/10/26 12:09:26;;;;;;;12.50;7.90;;;13.60;99.90;;;;;;5043510;28;20199;-44
2021/10/26 12:11:55;;;;;;;8.60;6.87;;;13.60;99.90;;;;;;5032743;28;20199;-47
2021/10/26 12:14:31;;;;;;;10.43;7.30;;;13.60;99.90;;;;;;5039894;28;20684;-43
2021/10/26 12:17:26;;;;;;;11.00;7.67;;;13.60;99.90;;;;;;5032440;28;20212;-47
2021/10/26 12:20:06;;;;;;;9.83;7.37;;;13.70;99.90;;;;;;5025158;28;20195;-46
2021/10/26 12:22:38;;;;;;;10.13;7.63;;;13.70;99.90;;;;;;5036047;28;20290;-44
2021/10/26 12:25:13;;;;;;;12.50;7.53;;;13.70;99.90;;;;;;5039551;28;20811;-45
2021/10/26 12:27:42;;;;;;;10.83;8.27;;;13.70;99.90;;;;;;5033574;28;20199;-45
2021/10/26 12:30:11;;;;;;;12.23;7.83;;;13.60;99.90;;;;;;5036614;28;20262;-44
2021/10/26 12:32:40;;;;;;;11.23;7.57;;;13.60;99.90;;;;;;5029054;28;20214;-44
2021/10/26 12:35:11;;;;;;;13.83;9.20;;;13.60;99.90;;;;;;5027459;28;20223;-46
2021/10/26 12:37:39;;;;;;;13.93;8.23;;;13.70;99.90;;;;;;5042893;28;20211;-43
2021/10/26 12:40:16;;;;;;;11.00;8.03;;;13.70;99.90;;;;;;5042794;28;20936;-48
2021/10/26 12:42:44;;;;;;;10.40;7.53;;;13.60;99.90;;;;;;5033481;28;20565;-45
2021/10/26 12:45:13;;;;;;;12.40;8.07;;;13.60;99.90;;;;;;5020949;28;20657;-49
2021/10/26 12:47:58;;;;;;;9.10;7.37;;;13.60;99.90;;;;;;5035257;28;20192;-51
2021/10/26 12:50:28;;;;;;;13.50;7.70;;;13.70;99.90;;;;;;5025653;28;20231;-51
2021/10/26 12:53:18;;;;;;;13.03;7.83;;;13.70;99.90;;;;;;5030467;28;20203;-48
2021/10/26 12:55:47;;;;;;;12.83;7.43;;;13.70;99.90;;;;;;5030700;28;20942;-52